Aérodrome :
LOGIN :

S'inscrire | Disclaimer

   EN    FR    IT 

 










Légende :    VFR   VFR Marginal   IFR   IFR Intensif   IFR Très Intensif
Visi : 
Plafond : 
>= 8 km
>= 3000ft
5 à 8 km
1000 à 3000 ft
1500m à 5 km
500 à 1000 ft
800 à 1500m
200 à 500 ft
< 800m
< 200 ft
Symboles :   Orages  Brouillard  Fortes neiges  Fortes précipitations  Vent > 20 kt
SIGMETs :   Divers  Orages  Givrage  Turbulence  Onde Orograph.  Cendres Volcan.







- Altitude de l'aérodrome : 1084 ft
- Code IATA : EPL
- Voir les cartes d'approche


LFSG - Épinal-Mirecourt

DERNIER METAR :
  • 231900Z AUTO 32012KT 9999 FEW019/// SCT031/// OVC100/// ///TCU 12/10 Q1019

METARs EXPIRÉS :
  • 231800Z AUTO 30016KT 9999 -RA BKN018/// BKN025/// BKN076/// ///TCU 13/11 Q1017
  • 231730Z AUTO 28019KT 9999 -RA FEW021/// BKN072/// OVC088/// ///TCU 14/11 Q1016
  • 231700Z AUTO 29020KT 9999 -RA FEW015/// SCT024/// BKN043/// ///CB 15/13 Q1013
  • 231630Z AUTO 30022G33KT 9000 -RA FEW013/// BKN021/// BKN030/// ///CB 16/15 Q1012

TAF N/A
Pas de NOTAMs connus pour ce terrain.
3 SIGMETs publiés pour la FIR Reims (LFEE) :
 
Turbulence forte
LFEE SIGMET 6 VALID 231900/232000 LFPW
LFEE REIMS FIR/UIR SEV TURB FCST WI N4845 E00800 - N4730 E00730 - N4630 E00615 - N4630 E00600 - N4715 E00515 - N4845 E00800 SFC/FL050 MOV E 30KT WKN=
Orages noyés dans la masse
LFEE SIGMET 4 VALID 231500/231900 LFPW
LFEE REIMS FIR/UIR EMBD TS FCST WI N4930 E00630 - N4915 E00730 - N4815 E00515 - N4830 E00530 - N4845 E00515 - N4930 E00630 TOP FL390 MOV E 30KT NC=
Turbulence forte
LFEE SIGMET 3 VALID 231500/231900 LFPW
LFEE REIMS FIR/UIR SEV TURB FCST WI N4915 E00730 - N4900 E00815 - N4730 E00730 - N4745 E00615 - N4845 E00545 - N4915 E00730 SFC/FL050 STNR NC=



MET'MAP, la Météo Aéronautique d'un coup d'oeil ! - Copyright ORBIFLY Décembre 2007 - Disclaimer

ORBIFLY MET'MAP TEAM :

Programmation & Développement : Alexandra Zaïnal
Conception & Développement : Baudouin d'Aumeries
Co-Programmation & Développement : Marc-Olivier Méhu
Soutien technique & logistique : Manuel Goepfert

Contact : metmap@orbifly.com




SOURCES & CREDITS :

   NOAA